MEL weather

Melbourne International Airport
Melbourne, Victoria, Australia

Public forecast

Using degrees Celsius for public forecast. Weather courtesy of forecast.io.

METAR (pilot weather report)

Retrieved 2018/09/22 16:30 UTC (5 minutes ago):

YMML 221630Z 25006KT 9999 SCT016 BKN028 10/07 Q1027 FM1700 22006KT 8000 SHRA BKN015 FM1800 18012KT 8000 SHRA SCT015

TAF (pilot weather forecast)

Retrieved 2018/09/22 12:00 UTC (5 hours ago):

TAF YMML 221121Z 2212/2318 22006KT 9999 SCT040 FM221800 18012KT 9999 -SHRA SCT010 BKN020 FM230000 18015G25KT 9999 BKN040 FM230800 18010KT 9999 SCT035 INTER 2217/2224 4000 SHRA BKN015 TEMPO 2218/2220 4000 SHRA BKN008